Time;durP1;ratioP1;P1;durP2;ratioP2;P2;SDS_P1;SDS_P2;PMS_P1;PMS_P2;Temp;Humidity;BMP_temperature;BMP_pressure;BME280_temperature;BME280_humidity;BME280_pressure;Samples;Min_cycle;Max_cycle;Signal;HPM_P1;HPM_P2
2022/04/07 00:01:18;;;;;;;27.23;4.63;;;;;;;;;;5082446;28;20062;-74
2022/04/07 00:03:45;;;;;;;27.15;5.00;;;;;;;;;;5084966;28;20066;-74
2022/04/07 00:06:13;;;;;;;28.98;4.57;;;;;;;;;;5091093;28;20040;-74
2022/04/07 00:08:40;;;;;;;29.98;4.72;;;;;;;;;;5083346;28;20052;-74
2022/04/07 00:11:08;;;;;;;27.02;4.25;;;;;;;;;;5083963;28;20052;-74
2022/04/07 00:13:35;;;;;;;24.90;3.67;;;;;;;;;;5083264;28;20059;-74
2022/04/07 00:16:04;;;;;;;33.88;4.95;;;;;;;;;;5086155;28;20056;-74
2022/04/07 00:18:31;;;;;;;25.50;4.28;;;;;;;;;;5085284;28;20055;-74
2022/04/07 00:20:59;;;;;;;32.65;4.95;;;;;;;;;;5087151;28;20063;-74
2022/04/07 00:23:27;;;;;;;27.88;4.78;;;;;;;;;;5082594;28;20067;-74
2022/04/07 00:25:54;;;;;;;32.35;5.10;;;;;;;;;;5113992;27;20055;-74
2022/04/07 00:28:21;;;;;;;37.60;5.78;;;;;;;;;;5119827;27;20044;-74
2022/04/07 00:30:49;;;;;;;31.75;5.28;;;;;;;;;;5085932;28;20044;-73
2022/04/07 00:33:18;;;;;;;28.20;5.20;;;;;;;;;;5084149;28;20047;-73
2022/04/07 00:35:45;;;;;;;40.00;5.88;;;;;;;;;;5082073;28;20577;-73
2022/04/07 00:38:12;;;;;;;32.85;5.70;;;;;;;;;;5084139;28;20075;-73
2022/04/07 00:40:39;;;;;;;27.13;5.03;;;;;;;;;;5081466;28;20052;-73
2022/04/07 00:43:06;;;;;;;40.05;5.13;;;;;;;;;;5117962;27;20502;-73
2022/04/07 00:45:34;;;;;;;30.45;4.90;;;;;;;;;;5081733;28;20048;-73
2022/04/07 00:48:01;;;;;;;32.05;5.60;;;;;;;;;;5085925;28;20044;-74
2022/04/07 00:50:29;;;;;;;25.85;4.72;;;;;;;;;;5080241;28;21462;-74
2022/04/07 00:52:58;;;;;;;42.35;5.78;;;;;;;;;;5085961;28;20109;-74
2022/04/07 00:55:26;;;;;;;39.38;5.35;;;;;;;;;;5082327;28;20071;-74
2022/04/07 00:57:53;;;;;;;31.65;4.82;;;;;;;;;;5086578;28;20093;-74
2022/04/07 01:00:21;;;;;;;33.17;5.40;;;;;;;;;;5085051;28;20048;-74
2022/04/07 01:02:48;;;;;;;40.45;6.03;;;;;;;;;;5117695;27;20056;-74
2022/04/07 01:05:18;;;;;;;35.00;4.78;;;;;;;;;;5083669;28;20047;-74
2022/04/07 01:07:46;;;;;;;36.00;5.50;;;;;;;;;;5084609;28;20059;-74
2022/04/07 01:10:14;;;;;;;44.15;5.20;;;;;;;;;;5083339;28;20910;-74
2022/04/07 01:12:41;;;;;;;45.67;5.85;;;;;;;;;;5084072;28;20403;-74
2022/04/07 01:15:09;;;;;;;33.55;4.72;;;;;;;;;;5082852;28;20048;-74
2022/04/07 01:17:36;;;;;;;43.20;6.00;;;;;;;;;;5084127;28;20052;-74
2022/04/07 01:20:04;;;;;;;36.80;6.00;;;;;;;;;;5084732;28;20056;-74
2022/04/07 01:22:32;;;;;;;35.67;5.32;;;;;;;;;;5088540;28;20044;-74
2022/04/07 01:25:01;;;;;;;30.08;5.18;;;;;;;;;;5085139;28;20055;-74
2022/04/07 01:27:28;;;;;;;41.22;5.93;;;;;;;;;;5081848;28;20044;-74
2022/04/07 01:29:56;;;;;;;37.75;5.57;;;;;;;;;;5085697;28;20047;-74
2022/04/07 01:32:25;;;;;;;35.70;5.97;;;;;;;;;;5084839;28;20591;-74
2022/04/07 01:34:52;;;;;;;35.38;5.55;;;;;;;;;;5077928;28;20058;-74
2022/04/07 01:37:20;;;;;;;36.38;5.65;;;;;;;;;;5083380;28;20059;-74
2022/04/07 01:39:48;;;;;;;38.60;5.65;;;;;;;;;;5084175;28;20037;-74
2022/04/07 01:42:17;;;;;;;38.20;6.03;;;;;;;;;;5084251;28;20059;-74
2022/04/07 01:44:47;;;;;;;28.38;4.85;;;;;;;;;;5085231;28;20052;-74
2022/04/07 01:47:16;;;;;;;31.13;4.90;;;;;;;;;;5083825;28;20764;-74
2022/04/07 01:49:46;;;;;;;29.00;5.15;;;;;;;;;;5084887;28;20052;-74
2022/04/07 01:52:13;;;;;;;44.92;7.28;;;;;;;;;;5086531;28;20052;-74
2022/04/07 01:54:42;;;;;;;27.55;5.10;;;;;;;;;;5088556;28;20448;-74
2022/04/07 01:57:09;;;;;;;36.97;5.28;;;;;;;;;;5088360;28;20503;-74
2022/04/07 01:59:38;;;;;;;44.30;5.70;;;;;;;;;;5088026;28;20044;-74
2022/04/07 02:02:05;;;;;;;35.42;5.82;;;;;;;;;;5088019;28;20067;-74
2022/04/07 02:04:33;;;;;;;35.97;5.30;;;;;;;;;;5087427;28;20044;-74
2022/04/07 02:07:00;;;;;;;39.50;5.90;;;;;;;;;;5084603;28;20063;-74
2022/04/07 02:09:28;;;;;;;42.85;7.35;;;;;;;;;;5088154;28;20052;-74
2022/04/07 02:11:55;;;;;;;38.42;5.60;;;;;;;;;;5084516;28;20052;-74
2022/04/07 02:14:22;;;;;;;34.33;5.95;;;;;;;;;;5087530;28;20101;-74
2022/04/07 02:16:51;;;;;;;31.15;5.05;;;;;;;;;;5086206;28;20529;-74
2022/04/07 02:19:18;;;;;;;35.83;5.18;;;;;;;;;;5087642;28;20117;-74
2022/04/07 02:21:45;;;;;;;35.33;6.03;;;;;;;;;;5086093;28;20056;-74
2022/04/07 02:24:14;;;;;;;36.58;5.50;;;;;;;;;;5088125;28;20052;-74
2022/04/07 02:26:42;;;;;;;43.55;7.00;;;;;;;;;;5090184;28;20051;-74
2022/04/07 02:29:09;;;;;;;45.97;6.90;;;;;;;;;;5085262;28;20109;-74
2022/04/07 02:31:36;;;;;;;50.22;6.28;;;;;;;;;;5086949;28;20465;-74
2022/04/07 02:34:04;;;;;;;44.10;6.93;;;;;;;;;;5088006;28;20047;-74
2022/04/07 02:36:32;;;;;;;45.22;7.15;;;;;;;;;;5087507;28;20056;-74
2022/04/07 02:38:59;;;;;;;40.13;6.55;;;;;;;;;;5087651;28;20448;-74
2022/04/07 02:41:26;;;;;;;44.22;6.15;;;;;;;;;;5087281;28;20047;-74
2022/04/07 02:43:55;;;;;;;34.50;5.80;;;;;;;;;;5084241;28;20135;-74
2022/04/07 02:46:22;;;;;;;36.95;5.80;;;;;;;;;;5086937;28;20075;-74
2022/04/07 02:48:49;;;;;;;38.33;5.65;;;;;;;;;;5084375;28;20045;-74
2022/04/07 02:51:18;;;;;;;37.03;5.45;;;;;;;;;;5088216;28;20134;-74
2022/04/07 02:53:45;;;;;;;44.55;6.90;;;;;;;;;;5115934;27;20056;-74
2022/04/07 02:56:13;;;;;;;44.80;6.90;;;;;;;;;;5087953;28;20075;-74
2022/04/07 02:58:40;;;;;;;44.00;7.20;;;;;;;;;;5085760;28;20050;-73
2022/04/07 03:01:14;;;;;;;46.70;6.28;;;;;;;;;;5087023;28;20059;-73
2022/04/07 03:03:41;;;;;;;36.45;6.65;;;;;;;;;;5087040;28;20059;-73
2022/04/07 03:06:08;;;;;;;45.58;7.38;;;;;;;;;;5086471;28;20056;-73
2022/04/07 03:08:37;;;;;;;41.58;6.00;;;;;;;;;;5081471;28;20471;-73
2022/04/07 03:11:05;;;;;;;43.10;6.70;;;;;;;;;;5083644;28;20553;-73
2022/04/07 03:13:33;;;;;;;45.85;6.20;;;;;;;;;;5085222;28;20130;-73
2022/04/07 03:16:00;;;;;;;37.13;6.22;;;;;;;;;;5085035;28;20452;-73
2022/04/07 03:18:27;;;;;;;45.08;7.30;;;;;;;;;;5080570;28;20448;-73
2022/04/07 03:20:54;;;;;;;43.15;6.85;;;;;;;;;;5088656;28;20048;-73
2022/04/07 03:23:21;;;;;;;35.75;6.45;;;;;;;;;;5086894;28;20093;-73
2022/04/07 03:25:50;;;;;;;35.70;5.85;;;;;;;;;;5086414;28;20055;-73
2022/04/07 03:28:17;;;;;;;33.95;5.30;;;;;;;;;;5086605;28;20378;-73
2022/04/07 03:30:45;;;;;;;41.03;6.60;;;;;;;;;;5119077;27;20051;-73
2022/04/07 03:33:12;;;;;;;38.53;6.03;;;;;;;;;;5088891;28;20059;-73
2022/04/07 03:35:39;;;;;;;32.50;5.22;;;;;;;;;;5086290;28;20105;-73
2022/04/07 03:38:06;;;;;;;44.47;6.40;;;;;;;;;;5087141;28;20051;-73
2022/04/07 03:40:34;;;;;;;38.72;5.43;;;;;;;;;;5085083;28;20040;-73
2022/04/07 03:43:03;;;;;;;35.08;5.78;;;;;;;;;;5082242;28;20055;-73
2022/04/07 03:45:31;;;;;;;37.08;6.38;;;;;;;;;;5084298;28;20056;-73
2022/04/07 03:47:58;;;;;;;39.03;6.68;;;;;;;;;;5085832;28;20121;-73
2022/04/07 03:50:26;;;;;;;40.35;6.50;;;;;;;;;;5083501;28;20097;-73
2022/04/07 03:52:53;;;;;;;32.70;5.78;;;;;;;;;;5081324;28;20109;-73
2022/04/07 03:55:22;;;;;;;50.88;7.35;;;;;;;;;;5084457;28;20051;-73
2022/04/07 03:57:49;;;;;;;47.20;7.30;;;;;;;;;;5082239;28;20060;-73
2022/04/07 04:00:19;;;;;;;65.55;9.38;;;;;;;;;;5087815;28;20043;-73
2022/04/07 04:02:46;;;;;;;60.55;8.07;;;;;;;;;;5081604;28;20056;-73
2022/04/07 04:05:13;;;;;;;60.25;9.43;;;;;;;;;;5085532;28;20056;-73
2022/04/07 04:07:41;;;;;;;42.95;7.53;;;;;;;;;;5085563;28;20081;-73
2022/04/07 04:10:08;;;;;;;54.85;7.60;;;;;;;;;;5086642;28;20101;-73
2022/04/07 04:12:35;;;;;;;63.67;8.82;;;;;;;;;;5119776;27;20056;-73
2022/04/07 04:15:03;;;;;;;54.58;7.68;;;;;;;;;;5088079;28;20052;-73
2022/04/07 04:17:32;;;;;;;70.63;10.02;;;;;;;;;;5080504;28;20044;-73
2022/04/07 04:20:00;;;;;;;60.15;8.60;;;;;;;;;;5115511;27;20048;-73
2022/04/07 04:22:28;;;;;;;64.50;8.02;;;;;;;;;;5082893;28;20052;-73
2022/04/07 04:24:55;;;;;;;56.70;8.10;;;;;;;;;;5084806;28;20048;-73
2022/04/07 04:27:22;;;;;;;73.10;9.15;;;;;;;;;;5082522;28;20553;-73
2022/04/07 04:29:49;;;;;;;62.35;8.73;;;;;;;;;;5085204;28;20051;-73
2022/04/07 04:32:17;;;;;;;65.47;9.52;;;;;;;;;;5084182;28;20502;-73
2022/04/07 04:34:45;;;;;;;60.72;8.77;;;;;;;;;;5077415;28;20048;-73
2022/04/07 04:37:12;;;;;;;75.93;8.82;;;;;;;;;;5081639;28;20059;-73
2022/04/07 04:39:40;;;;;;;71.35;9.38;;;;;;;;;;5080000;28;20785;-73
2022/04/07 04:42:07;;;;;;;78.60;9.05;;;;;;;;;;5077587;28;20055;-75
2022/04/07 04:44:34;;;;;;;88.05;10.85;;;;;;;;;;5079099;28;20093;-74
2022/04/07 04:47:02;;;;;;;76.75;10.23;;;;;;;;;;5113633;27;20052;-73
2022/04/07 04:49:29;;;;;;;66.88;8.60;;;;;;;;;;5083704;28;20486;-73
2022/04/07 04:51:58;;;;;;;76.28;9.43;;;;;;;;;;5083623;28;20127;-74
2022/04/07 04:54:25;;;;;;;59.22;8.88;;;;;;;;;;5081256;28;20067;-74
2022/04/07 04:56:52;;;;;;;40.45;6.18;;;;;;;;;;5090356;28;20120;-74
2022/04/07 04:59:19;;;;;;;28.85;5.45;;;;;;;;;;5088248;28;20052;-74
2022/04/07 05:01:47;;;;;;;39.03;4.97;;;;;;;;;;5076238;28;20595;-73
2022/04/07 05:04:14;;;;;;;32.60;4.53;;;;;;;;;;5080574;28;20058;-74
2022/04/07 05:06:41;;;;;;;32.80;4.35;;;;;;;;;;5085779;28;20109;-74
2022/04/07 05:09:10;;;;;;;28.10;3.53;;;;;;;;;;5082489;28;20387;-74
2022/04/07 05:11:37;;;;;;;36.22;3.90;;;;;;;;;;5085843;28;20484;-74
2022/04/07 05:14:04;;;;;;;25.83;4.00;;;;;;;;;;5087954;28;20105;-74
2022/04/07 05:16:31;;;;;;;27.15;3.53;;;;;;;;;;5083981;28;20052;-74
2022/04/07 05:18:59;;;;;;;20.13;2.50;;;;;;;;;;5085452;28;20201;-74
2022/04/07 05:21:26;;;;;;;17.90;2.90;;;;;;;;;;5091728;28;20108;-74
2022/04/07 05:23:53;;;;;;;13.10;1.85;;;;;;;;;;5092696;28;20063;-74
2022/04/07 05:26:22;;;;;;;15.07;2.10;;;;;;;;;;5110634;27;20635;-73
2022/04/07 05:28:49;;;;;;;16.17;1.70;;;;;;;;;;5088439;28;20066;-74
2022/04/07 05:31:16;;;;;;;20.88;2.05;;;;;;;;;;5083380;28;20654;-74
2022/04/07 05:33:43;;;;;;;22.25;2.53;;;;;;;;;;5082323;28;20048;-75
2022/04/07 05:36:10;;;;;;;24.13;1.83;;;;;;;;;;5084676;28;20048;-74
2022/04/07 05:38:37;;;;;;;23.42;3.15;;;;;;;;;;5081792;28;21182;-74
2022/04/07 05:41:05;;;;;;;31.08;2.65;;;;;;;;;;5089548;28;20047;-74
2022/04/07 05:43:33;;;;;;;26.08;2.22;;;;;;;;;;5089050;28;20051;-74
2022/04/07 05:46:02;;;;;;;24.67;3.45;;;;;;;;;;5092096;28;20055;-74
2022/04/07 05:48:29;;;;;;;20.13;2.17;;;;;;;;;;5090116;28;20055;-74
2022/04/07 05:50:57;;;;;;;22.52;2.70;;;;;;;;;;5088622;28;20040;-73
2022/04/07 05:53:24;;;;;;;20.63;2.40;;;;;;;;;;5090728;28;20112;-73
2022/04/07 05:55:51;;;;;;;17.80;1.88;;;;;;;;;;5096243;28;20052;-73
2022/04/07 05:58:19;;;;;;;14.82;2.25;;;;;;;;;;5088248;28;20055;-74
2022/04/07 06:00:47;;;;;;;21.85;2.03;;;;;;;;;;5076945;28;20044;-74
2022/04/07 06:03:15;;;;;;;15.02;1.80;;;;;;;;;;5078392;28;20114;-74
2022/04/07 06:05:42;;;;;;;15.80;1.77;;;;;;;;;;5112243;28;20059;-74
2022/04/07 06:08:09;;;;;;;17.85;1.83;;;;;;;;;;5088806;28;20052;-74
2022/04/07 06:10:37;;;;;;;13.90;1.70;;;;;;;;;;5080193;28;20048;-74
2022/04/07 06:13:04;;;;;;;16.33;2.00;;;;;;;;;;5081655;28;20890;-74
2022/04/07 06:15:32;;;;;;;17.30;1.48;;;;;;;;;;5087103;28;20063;-74
2022/04/07 06:18:00;;;;;;;13.35;1.73;;;;;;;;;;5082361;28;20081;-74
2022/04/07 06:20:28;;;;;;;18.65;1.70;;;;;;;;;;5083538;28;20070;-74
2022/04/07 06:22:55;;;;;;;17.98;1.77;;;;;;;;;;5086246;28;20070;-74
2022/04/07 06:25:22;;;;;;;20.38;2.30;;;;;;;;;;5083664;28;20060;-74
2022/04/07 06:27:49;;;;;;;16.67;1.90;;;;;;;;;;5081193;28;20052;-74
2022/04/07 06:30:17;;;;;;;15.85;2.22;;;;;;;;;;5079922;28;20498;-74
2022/04/07 06:32:45;;;;;;;21.38;2.15;;;;;;;;;;5076130;28;20113;-74
2022/04/07 06:35:14;;;;;;;20.75;2.13;;;;;;;;;;5107254;27;20557;-74
2022/04/07 06:37:51;;;;;;;22.05;2.25;;;;;;;;;;5077697;28;20117;-74
2022/04/07 06:40:20;;;;;;;17.70;2.30;;;;;;;;;;5081348;28;20197;-74
2022/04/07 06:42:47;;;;;;;13.05;1.77;;;;;;;;;;5109409;27;20055;-74
2022/04/07 06:45:14;;;;;;;17.73;2.35;;;;;;;;;;5084020;28;20063;-74
2022/04/07 06:47:42;;;;;;;17.70;1.98;;;;;;;;;;5092287;28;20482;-74
2022/04/07 06:50:11;;;;;;;19.35;2.40;;;;;;;;;;5084584;28;20048;-74
2022/04/07 06:52:40;;;;;;;19.35;2.50;;;;;;;;;;5084000;28;20157;-74
2022/04/07 06:55:08;;;;;;;21.33;2.30;;;;;;;;;;5083938;28;20368;-74
2022/04/07 06:57:47;;;;;;;19.70;2.30;;;;;;;;;;5083065;28;20510;-74
2022/04/07 07:00:15;;;;;;;17.02;1.85;;;;;;;;;;5079582;28;20068;-75
2022/04/07 07:02:44;;;;;;;18.90;1.90;;;;;;;;;;5076328;28;20495;-74
2022/04/07 07:05:11;;;;;;;19.73;2.35;;;;;;;;;;5078672;28;20127;-74
2022/04/07 07:07:40;;;;;;;21.20;2.40;;;;;;;;;;5085271;28;20955;-74
2022/04/07 07:10:07;;;;;;;21.90;2.13;;;;;;;;;;5079966;28;20066;-74
2022/04/07 07:12:35;;;;;;;17.63;2.13;;;;;;;;;;5085507;28;20047;-74
2022/04/07 07:15:02;;;;;;;17.15;2.83;;;;;;;;;;5085434;28;21212;-74
2022/04/07 07:17:33;;;;;;;17.98;2.38;;;;;;;;;;5076253;28;20048;-74
2022/04/07 07:20:04;;;;;;;20.17;2.15;;;;;;;;;;5074667;28;20058;-74
2022/04/07 07:22:32;;;;;;;15.45;1.92;;;;;;;;;;5078004;28;20052;-74
2022/04/07 07:25:00;;;;;;;19.70;2.20;;;;;;;;;;5084247;28;20545;-74
2022/04/07 07:27:28;;;;;;;16.58;2.22;;;;;;;;;;5083683;28;20415;-74
2022/04/07 07:29:55;;;;;;;21.67;1.95;;;;;;;;;;5080637;28;20051;-74
2022/04/07 07:32:22;;;;;;;17.20;2.30;;;;;;;;;;5082531;28;20060;-74
2022/04/07 07:34:49;;;;;;;18.15;2.10;;;;;;;;;;5084165;28;20056;-74
2022/04/07 07:37:18;;;;;;;12.43;1.80;;;;;;;;;;5086423;28;20064;-74
2022/04/07 07:39:46;;;;;;;19.02;2.08;;;;;;;;;;5080320;28;20064;-73
2022/04/07 07:42:14;;;;;;;17.15;2.67;;;;;;;;;;5084091;28;20048;-74
2022/04/07 07:44:41;;;;;;;21.13;2.50;;;;;;;;;;5115140;27;20486;-74
2022/04/07 07:47:09;;;;;;;16.20;1.92;;;;;;;;;;5087143;28;20052;-74
2022/04/07 07:49:36;;;;;;;18.58;2.40;;;;;;;;;;5081477;28;20059;-74
2022/04/07 07:52:03;;;;;;;15.85;1.95;;;;;;;;;;5085153;28;20048;-74
2022/04/07 07:54:30;;;;;;;13.98;2.28;;;;;;;;;;5081652;28;20055;-74
2022/04/07 07:56:58;;;;;;;16.77;2.35;;;;;;;;;;5075407;28;20097;-74
2022/04/07 07:59:26;;;;;;;24.30;2.42;;;;;;;;;;5085051;28;20656;-74
2022/04/07 08:01:53;;;;;;;23.45;2.38;;;;;;;;;;5111757;27;20048;-74
2022/04/07 08:04:21;;;;;;;15.18;2.15;;;;;;;;;;5086747;28;20052;-75
2022/04/07 08:06:48;;;;;;;18.77;2.20;;;;;;;;;;5085147;28;20768;-74
2022/04/07 08:09:15;;;;;;;15.57;2.90;;;;;;;;;;5090422;28;20551;-75
2022/04/07 08:11:42;;;;;;;13.90;1.98;;;;;;;;;;5086883;28;20044;-74
2022/04/07 08:14:10;;;;;;;15.23;2.20;;;;;;;;;;5082050;28;20048;-74
2022/04/07 08:16:39;;;;;;;16.48;2.78;;;;;;;;;;5089550;28;20332;-74
2022/04/07 08:19:09;;;;;;;19.17;2.22;;;;;;;;;;5089143;28;20482;-74
2022/04/07 08:21:36;;;;;;;15.35;2.90;;;;;;;;;;5086327;28;20097;-74
2022/04/07 08:24:04;;;;;;;21.73;3.03;;;;;;;;;;5081347;28;20059;-74
2022/04/07 08:26:31;;;;;;;13.73;2.10;;;;;;;;;;5082465;28;20048;-73
2022/04/07 08:28:58;;;;;;;19.23;3.22;;;;;;;;;;5082402;28;20812;-74
2022/04/07 08:31:26;;;;;;;16.70;2.20;;;;;;;;;;5111169;27;20047;-74
2022/04/07 08:33:54;;;;;;;14.90;2.30;;;;;;;;;;5078970;28;20084;-74
2022/04/07 08:36:22;;;;;;;17.75;2.55;;;;;;;;;;5080952;28;20065;-74
2022/04/07 08:38:49;;;;;;;13.32;2.67;;;;;;;;;;5076690;28;20060;-73
2022/04/07 08:41:16;;;;;;;17.38;2.40;;;;;;;;;;5079331;28;20048;-73
2022/04/07 08:43:44;;;;;;;13.60;2.60;;;;;;;;;;5075577;28;20071;-73
2022/04/07 08:46:12;;;;;;;22.88;2.30;;;;;;;;;;5076948;28;20060;-74
2022/04/07 08:48:42;;;;;;;15.35;2.20;;;;;;;;;;5075528;28;20425;-74
2022/04/07 08:51:11;;;;;;;17.23;2.65;;;;;;;;;;5079088;28;20066;-74
2022/04/07 08:53:38;;;;;;;14.02;2.40;;;;;;;;;;5080895;28;20092;-74
2022/04/07 08:56:06;;;;;;;21.90;3.22;;;;;;;;;;5080995;28;20059;-73
2022/04/07 08:58:33;;;;;;;17.52;3.28;;;;;;;;;;5080388;28;20536;-73
2022/04/07 09:01:00;;;;;;;21.88;3.22;;;;;;;;;;5081657;28;20052;-73
2022/04/07 09:03:28;;;;;;;14.68;2.88;;;;;;;;;;5080836;28;20082;-74
2022/04/07 09:05:56;;;;;;;23.52;3.00;;;;;;;;;;5078616;28;20052;-75
2022/04/07 09:08:31;;;;;;;16.67;2.75;;;;;;;;;;5076513;28;21539;-74
2022/04/07 09:10:59;;;;;;;21.23;2.97;;;;;;;;;;5079995;28;20151;-74
2022/04/07 09:13:29;;;;;;;22.92;2.90;;;;;;;;;;5080924;28;20578;-74
2022/04/07 09:15:56;;;;;;;17.70;3.17;;;;;;;;;;5084508;28;20044;-74
2022/04/07 09:18:25;;;;;;;20.80;3.17;;;;;;;;;;5084898;28;20075;-74
2022/04/07 09:20:52;;;;;;;19.80;2.50;;;;;;;;;;5085495;28;20551;-74
2022/04/07 09:23:19;;;;;;;16.23;2.67;;;;;;;;;;5079408;28;20408;-74
2022/04/07 09:25:49;;;;;;;14.82;2.80;;;;;;;;;;5085959;28;20056;-74
2022/04/07 09:28:27;;;;;;;17.48;3.20;;;;;;;;;;5112142;27;20058;-74
2022/04/07 09:30:54;;;;;;;16.88;2.92;;;;;;;;;;5113680;27;20086;-74
2022/04/07 09:33:22;;;;;;;15.57;2.72;;;;;;;;;;5079771;28;20751;-74
2022/04/07 09:36:00;;;;;;;18.38;3.60;;;;;;;;;;5089094;28;20582;-73
2022/04/07 09:38:27;;;;;;;21.10;2.88;;;;;;;;;;5083988;28;20063;-73
2022/04/07 09:41:03;;;;;;;18.42;2.85;;;;;;;;;;5080403;28;20456;-73
2022/04/07 09:43:30;;;;;;;18.35;3.65;;;;;;;;;;5084484;28;20531;-74
2022/04/07 09:45:57;;;;;;;16.52;2.88;;;;;;;;;;5081700;28;20040;-74
2022/04/07 09:48:27;;;;;;;17.08;2.83;;;;;;;;;;5083215;28;20044;-74
2022/04/07 09:51:04;;;;;;;20.50;3.70;;;;;;;;;;5077030;28;20065;-74
2022/04/07 09:53:36;;;;;;;17.20;3.15;;;;;;;;;;5076988;28;20041;-73
2022/04/07 09:56:04;;;;;;;17.90;3.20;;;;;;;;;;5084395;28;20090;-73
2022/04/07 09:58:33;;;;;;;19.92;2.75;;;;;;;;;;5082243;28;20180;-73
2022/04/07 10:01:02;;;;;;;21.92;3.60;;;;;;;;;;5115494;28;20413;-73
2022/04/07 10:03:30;;;;;;;16.80;3.13;;;;;;;;;;5082850;28;20083;-74
2022/04/07 10:05:58;;;;;;;21.13;3.75;;;;;;;;;;5083365;28;20098;-74
2022/04/07 10:08:25;;;;;;;21.60;3.03;;;;;;;;;;5082512;28;20055;-73
2022/04/07 10:10:52;;;;;;;23.75;3.85;;;;;;;;;;5082613;28;20048;-73
2022/04/07 10:13:21;;;;;;;20.55;2.95;;;;;;;;;;5088090;28;20130;-73
2022/04/07 10:15:49;;;;;;;20.92;3.20;;;;;;;;;;5087637;28;20222;-73
2022/04/07 10:18:19;;;;;;;22.23;3.67;;;;;;;;;;5086114;28;20646;-73
2022/04/07 10:20:48;;;;;;;21.20;3.58;;;;;;;;;;5085966;28;20555;-73
2022/04/07 10:23:23;;;;;;;23.20;4.20;;;;;;;;;;5080776;28;20906;-73
2022/04/07 10:25:51;;;;;;;20.38;3.53;;;;;;;;;;5084859;28;20055;-73
2022/04/07 10:28:19;;;;;;;20.40;3.10;;;;;;;;;;5086029;28;20052;-75
2022/04/07 10:30:51;;;;;;;25.05;3.60;;;;;;;;;;5076938;28;20147;-74
2022/04/07 10:33:32;;;;;;;21.50;3.53;;;;;;;;;;5087187;28;20207;-74
2022/04/07 10:36:00;;;;;;;19.40;3.50;;;;;;;;;;5085833;28;20059;-74
2022/04/07 10:38:37;;;;;;;20.80;3.30;;;;;;;;;;5079997;28;20407;-74
2022/04/07 10:41:04;;;;;;;26.70;3.63;;;;;;;;;;5082753;28;20131;-74
2022/04/07 10:43:37;;;;;;;22.15;4.10;;;;;;;;;;5084235;28;20059;-74
2022/04/07 10:46:14;;;;;;;25.52;3.60;;;;;;;;;;5086699;28;20056;-74
2022/04/07 10:48:46;;;;;;;28.15;4.15;;;;;;;;;;5081592;28;20077;-74
2022/04/07 10:51:13;;;;;;;19.08;3.33;;;;;;;;;;5088250;28;20043;-74
2022/04/07 10:53:41;;;;;;;23.67;3.30;;;;;;;;;;5089498;28;20494;-74
2022/04/07 10:56:10;;;;;;;26.73;4.03;;;;;;;;;;5086221;28;20051;-74
2022/04/07 10:58:38;;;;;;;21.77;4.20;;;;;;;;;;5086442;28;20055;-74
2022/04/07 11:01:06;;;;;;;25.58;4.40;;;;;;;;;;5082976;28;20106;-72
2022/04/07 11:03:35;;;;;;;16.35;3.55;;;;;;;;;;5077666;28;20132;-74
2022/04/07 11:06:06;;;;;;;21.40;3.45;;;;;;;;;;5083382;28;20044;-74
2022/04/07 11:08:33;;;;;;;25.00;3.75;;;;;;;;;;5076213;28;20044;-74
2022/04/07 11:11:00;;;;;;;19.10;3.33;;;;;;;;;;5080276;28;20101;-74
2022/04/07 11:13:43;;;;;;;23.90;4.05;;;;;;;;;;5080383;28;20044;-74
2022/04/07 11:16:15;;;;;;;24.25;3.72;;;;;;;;;;5086521;28;20040;-74
2022/04/07 11:18:51;;;;;;;20.33;3.42;;;;;;;;;;5089064;28;20048;-74
2022/04/07 11:21:18;;;;;;;20.10;3.70;;;;;;;;;;5086936;28;20101;-74
2022/04/07 11:23:51;;;;;;;18.58;3.53;;;;;;;;;;5087604;28;20053;-74
2022/04/07 11:26:18;;;;;;;;;;;;;;;;;;5089058;28;20178;-74
2022/04/07 11:28:58;;;;;;;18.92;3.47;;;;;;;;;;5089290;28;19920;-74
2022/04/07 11:31:45;;;;;;;21.02;3.75;;;;;;;;;;5082531;28;20080;-74
2022/04/07 11:34:31;;;;;;;15.65;3.15;;;;;;;;;;5089381;28;20075;-74
2022/04/07 11:37:00;;;;;;;18.80;3.45;;;;;;;;;;5090869;28;20052;-74
2022/04/07 11:39:29;;;;;;;16.10;3.38;;;;;;;;;;5090024;28;20051;-74
2022/04/07 11:41:59;;;;;;;17.60;3.50;;;;;;;;;;5082414;28;20470;-74
2022/04/07 11:44:27;;;;;;;22.20;4.25;;;;;;;;;;5090400;28;20067;-74
2022/04/07 11:46:54;;;;;;;19.73;3.80;;;;;;;;;;5088305;28;20465;-74
2022/04/07 11:49:23;;;;;;;24.20;3.65;;;;;;;;;;5086299;28;20082;-75
2022/04/07 11:51:50;;;;;;;20.90;3.20;;;;;;;;;;5087455;28;20058;-73
2022/04/07 11:54:20;;;;;;;26.30;4.18;;;;;;;;;;5086425;28;20048;-75
2022/04/07 11:56:48;;;;;;;53.15;4.68;;;;;;;;;;5089253;28;20044;-75
2022/04/07 11:59:15;;;;;;;17.92;2.85;;;;;;;;;;5094241;28;20115;-75
2022/04/07 12:01:44;;;;;;;29.08;3.50;;;;;;;;;;5077137;28;20059;-75
2022/04/07 12:04:13;;;;;;;31.77;4.22;;;;;;;;;;5083816;28;20059;-75
2022/04/07 12:06:44;;;;;;;36.88;5.15;;;;;;;;;;5115291;27;20082;-75
2022/04/07 12:09:11;;;;;;;31.17;5.38;;;;;;;;;;5082393;28;20473;-75
2022/04/07 12:11:40;;;;;;;21.67;3.67;;;;;;;;;;5087485;28;20052;-75
2022/04/07 12:14:09;;;;;;;19.95;3.03;;;;;;;;;;5087399;28;20052;-75
2022/04/07 12:16:36;;;;;;;25.15;3.22;;;;;;;;;;5086199;28;20062;-75
2022/04/07 12:19:04;;;;;;;21.85;3.10;;;;;;;;;;5083020;28;20056;-75
2022/04/07 12:21:50;;;;;;;23.88;3.03;;;;;;;;;;5083923;28;20052;-75
2022/04/07 12:24:18;;;;;;;22.92;3.38;;;;;;;;;;5079175;28;20040;-75
2022/04/07 12:26:47;;;;;;;23.88;3.15;;;;;;;;;;5087246;28;21877;-75
2022/04/07 12:29:14;;;;;;;12.88;2.40;;;;;;;;;;5086979;28;20044;-75
2022/04/07 12:31:42;;;;;;;11.23;2.00;;;;;;;;;;5083392;28;20051;-75
2022/04/07 12:34:11;;;;;;;10.15;1.80;;;;;;;;;;5084496;28;20043;-75
2022/04/07 12:36:39;;;;;;;10.95;2.25;;;;;;;;;;5082244;28;20061;-75
2022/04/07 12:39:08;;;;;;;12.27;2.10;;;;;;;;;;5089897;28;20051;-75
2022/04/07 12:41:37;;;;;;;20.95;3.35;;;;;;;;;;5091313;28;20043;-75
2022/04/07 12:44:05;;;;;;;20.77;3.05;;;;;;;;;;5091837;28;20051;-75
2022/04/07 12:46:46;;;;;;;19.67;3.00;;;;;;;;;;5094153;28;20067;-74
2022/04/07 12:49:13;;;;;;;15.73;2.28;;;;;;;;;;5084851;28;20041;-74
2022/04/07 12:51:41;;;;;;;15.77;2.10;;;;;;;;;;5088876;28;20046;-74
2022/04/07 12:54:13;;;;;;;11.65;2.08;;;;;;;;;;5090944;28;20047;-74
2022/04/07 12:56:40;;;;;;;19.90;2.20;;;;;;;;;;5086551;28;20095;-75
2022/04/07 12:59:10;;;;;;;23.17;2.20;;;;;;;;;;5090160;28;20482;-75
2022/04/07 13:01:38;;;;;;;16.73;2.22;;;;;;;;;;5082804;28;20048;-75
2022/04/07 13:04:08;;;;;;;17.52;2.83;;;;;;;;;;5084391;28;20507;-75
2022/04/07 13:06:36;;;;;;;28.08;3.95;;;;;;;;;;5081766;28;20058;-75
2022/04/07 13:09:04;;;;;;;30.30;3.40;;;;;;;;;;5109419;27;20172;-74
2022/04/07 13:11:36;;;;;;;37.78;4.40;;;;;;;;;;5088245;28;20055;-74
2022/04/07 13:14:04;;;;;;;20.25;2.55;;;;;;;;;;5084723;28;20130;-74
2022/04/07 13:16:32;;;;;;;12.23;1.48;;;;;;;;;;5110007;27;20052;-75
2022/04/07 13:19:00;;;;;;;13.63;1.55;;;;;;;;;;5076040;28;20059;-75
2022/04/07 13:21:27;;;;;;;15.00;1.90;;;;;;;;;;5071680;28;20499;-75
2022/04/07 13:23:54;;;;;;;14.07;1.70;;;;;;;;;;5070153;28;20062;-75
2022/04/07 13:26:21;;;;;;;14.35;2.00;;;;;;;;;;5076161;28;20527;-75
2022/04/07 13:28:49;;;;;;;23.33;2.33;;;;;;;;;;5113983;27;20056;-75
2022/04/07 13:31:17;;;;;;;22.10;2.17;;;;;;;;;;5077316;28;20452;-75
2022/04/07 13:33:45;;;;;;;17.63;2.40;;;;;;;;;;5076224;28;20048;-75
2022/04/07 13:36:13;;;;;;;32.80;3.15;;;;;;;;;;5075274;28;20498;-75
2022/04/07 13:38:40;;;;;;;26.58;3.30;;;;;;;;;;5077460;28;20056;-75
2022/04/07 13:41:08;;;;;;;20.90;3.67;;;;;;;;;;5074748;28;20051;-75
2022/04/07 13:43:36;;;;;;;18.90;2.72;;;;;;;;;;5077277;28;20422;-75
2022/04/07 13:46:03;;;;;;;22.90;3.65;;;;;;;;;;5076830;28;20082;-75
2022/04/07 13:48:30;;;;;;;30.20;3.95;;;;;;;;;;5086338;28;20044;-75
2022/04/07 13:50:59;;;;;;;25.30;3.78;;;;;;;;;;5084024;28;20051;-75
2022/04/07 13:53:26;;;;;;;16.52;2.90;;;;;;;;;;5084599;28;20105;-75
2022/04/07 13:55:53;;;;;;;26.95;3.33;;;;;;;;;;5084800;28;20052;-75
2022/04/07 13:58:21;;;;;;;20.70;4.15;;;;;;;;;;5086978;28;20052;-75
2022/04/07 14:00:48;;;;;;;24.58;3.50;;;;;;;;;;5087230;28;20052;-75
2022/04/07 14:03:15;;;;;;;14.13;2.80;;;;;;;;;;5117170;27;20533;-75
2022/04/07 14:05:42;;;;;;;18.08;2.60;;;;;;;;;;5088021;28;20047;-75
2022/04/07 14:08:13;;;;;;;17.73;3.22;;;;;;;;;;5087779;28;20109;-75
2022/04/07 14:10:42;;;;;;;17.52;2.92;;;;;;;;;;5088392;28;20048;-75
2022/04/07 14:13:10;;;;;;;15.82;3.10;;;;;;;;;;5112167;27;20044;-75
2022/04/07 14:15:38;;;;;;;21.25;3.90;;;;;;;;;;5096580;28;20485;-75
2022/04/07 14:18:06;;;;;;;14.63;2.90;;;;;;;;;;5088971;28;20764;-75
2022/04/07 14:20:33;;;;;;;14.20;2.70;;;;;;;;;;5095510;28;20134;-74
2022/04/07 14:23:00;;;;;;;20.70;3.40;;;;;;;;;;5085975;28;20117;-74
2022/04/07 14:25:29;;;;;;;17.35;2.28;;;;;;;;;;5082111;28;20059;-73
2022/04/07 14:27:56;;;;;;;16.73;2.60;;;;;;;;;;5087164;28;20059;-73
2022/04/07 14:30:23;;;;;;;19.55;2.97;;;;;;;;;;5085664;28;21178;-73
2022/04/07 14:32:51;;;;;;;16.90;2.88;;;;;;;;;;5087157;28;20059;-73
2022/04/07 14:35:19;;;;;;;18.05;3.75;;;;;;;;;;5085660;28;20056;-73
2022/04/07 14:37:46;;;;;;;17.83;2.72;;;;;;;;;;5086144;28;20084;-73